sensor_id;sensor_type;location;lat;lon;timestamp;pressure;altitude;pressure_sealevel;temperature;humidity
66703;BME280;60933;46.398;-63.798;2023-03-01T00:01:19;101978.28;;;-9.28;65.07
66703;BME280;60933;46.398;-63.798;2023-03-01T00:03:47;101975.53;;;-9.31;65.21
66703;BME280;60933;46.398;-63.798;2023-03-01T00:06:14;101971.19;;;-9.33;65.79
66703;BME280;60933;46.398;-63.798;2023-03-01T00:08:40;101957.47;;;-9.39;66.01
66703;BME280;60933;46.398;-63.798;2023-03-01T00:13:41;101960.97;;;-9.36;65.66
66703;BME280;60933;46.398;-63.798;2023-03-01T00:16:15;101966.59;;;-9.39;66.45
66703;BME280;60933;46.398;-63.798;2023-03-01T00:18:42;101959.97;;;-9.39;66.99
66703;BME280;60933;46.398;-63.798;2023-03-01T00:21:08;101963.13;;;-9.41;66.19
66703;BME280;60933;46.398;-63.798;2023-03-01T00:23:35;101967.38;;;-9.40;66.85
66703;BME280;60933;46.398;-63.798;2023-03-01T00:26:01;101978.13;;;-9.41;66.63
66703;BME280;60933;46.398;-63.798;2023-03-01T00:28:27;101984.72;;;-9.42;65.96
66703;BME280;60933;46.398;-63.798;2023-03-01T00:30:53;101981.72;;;-9.38;65.75
66703;BME280;60933;46.398;-63.798;2023-03-01T00:33:19;101985.09;;;-9.37;65.72
66703;BME280;60933;46.398;-63.798;2023-03-01T00:35:48;101983.47;;;-9.36;66.26
66703;BME280;60933;46.398;-63.798;2023-03-01T00:38:14;101978.22;;;-9.40;66.62
66703;BME280;60933;46.398;-63.798;2023-03-01T00:40:40;101979.22;;;-9.38;66.40
66703;BME280;60933;46.398;-63.798;2023-03-01T00:43:06;101980.97;;;-9.36;66.74
66703;BME280;60933;46.398;-63.798;2023-03-01T00:45:33;101969.31;;;-9.36;65.61
66703;BME280;60933;46.398;-63.798;2023-03-01T00:47:59;101985.31;;;-9.34;65.96
66703;BME280;60933;46.398;-63.798;2023-03-01T00:50:25;101990.22;;;-9.35;66.37
66703;BME280;60933;46.398;-63.798;2023-03-01T00:52:55;101990.31;;;-9.34;65.74
66703;BME280;60933;46.398;-63.798;2023-03-01T00:55:22;101996.44;;;-9.30;64.75
66703;BME280;60933;46.398;-63.798;2023-03-01T00:57:48;102004.69;;;-9.31;64.54
66703;BME280;60933;46.398;-63.798;2023-03-01T01:00:15;102009.94;;;-9.28;65.22
66703;BME280;60933;46.398;-63.798;2023-03-01T01:02:41;102016.69;;;-9.27;65.38
66703;BME280;60933;46.398;-63.798;2023-03-01T01:05:07;102011.69;;;-9.27;65.52
66703;BME280;60933;46.398;-63.798;2023-03-01T01:07:33;102011.16;;;-9.23;64.68
66703;BME280;60933;46.398;-63.798;2023-03-01T01:09:59;102005.16;;;-9.25;64.19
66703;BME280;60933;46.398;-63.798;2023-03-01T01:12:25;102024.66;;;-9.21;64.19
66703;BME280;60933;46.398;-63.798;2023-03-01T01:14:51;102014.66;;;-9.21;63.95
66703;BME280;60933;46.398;-63.798;2023-03-01T01:17:17;102016.41;;;-9.20;64.70
66703;BME280;60933;46.398;-63.798;2023-03-01T01:19:43;102018.13;;;-9.19;64.34
66703;BME280;60933;46.398;-63.798;2023-03-01T01:22:09;102010.50;;;-9.20;63.96
66703;BME280;60933;46.398;-63.798;2023-03-01T01:24:35;102010.50;;;-9.20;64.98
66703;BME280;60933;46.398;-63.798;2023-03-01T01:27:01;102015.41;;;-9.22;64.84
66703;BME280;60933;46.398;-63.798;2023-03-01T01:29:27;102004.50;;;-9.23;65.51
66703;BME280;60933;46.398;-63.798;2023-03-01T01:31:53;102002.00;;;-9.23;65.11
66703;BME280;60933;46.398;-63.798;2023-03-01T01:34:20;102001.13;;;-9.23;64.57
66703;BME280;60933;46.398;-63.798;2023-03-01T01:36:53;101992.66;;;-9.25;65.17
66703;BME280;60933;46.398;-63.798;2023-03-01T01:39:22;101996.03;;;-9.25;65.54
66703;BME280;60933;46.398;-63.798;2023-03-01T01:41:48;102005.41;;;-9.22;65.29
66703;BME280;60933;46.398;-63.798;2023-03-01T01:44:18;102002.00;;;-9.23;65.30
66703;BME280;60933;46.398;-63.798;2023-03-01T01:46:55;102003.66;;;-9.23;64.21
66703;BME280;60933;46.398;-63.798;2023-03-01T01:49:32;102003.75;;;-9.22;65.64
66703;BME280;60933;46.398;-63.798;2023-03-01T01:52:31;102006.25;;;-9.22;64.82
66703;BME280;60933;46.398;-63.798;2023-03-01T01:55:01;102008.00;;;-9.20;65.26
66703;BME280;60933;46.398;-63.798;2023-03-01T01:57:49;101997.00;;;-9.23;65.80
66703;BME280;60933;46.398;-63.798;2023-03-01T02:00:20;101990.50;;;-9.20;65.09
66703;BME280;60933;46.398;-63.798;2023-03-01T02:02:49;101998.00;;;-9.20;64.87
66703;BME280;60933;46.398;-63.798;2023-03-01T02:05:57;101999.63;;;-9.21;64.86
66703;BME280;60933;46.398;-63.798;2023-03-01T02:08:27;101995.16;;;-9.25;65.13
66703;BME280;60933;46.398;-63.798;2023-03-01T02:10:57;101984.50;;;-9.23;64.56
66703;BME280;60933;46.398;-63.798;2023-03-01T02:13:25;101978.63;;;-9.23;65.28
66703;BME280;60933;46.398;-63.798;2023-03-01T02:15:52;101981.25;;;-9.22;64.72
66703;BME280;60933;46.398;-63.798;2023-03-01T02:18:20;101969.91;;;-9.28;65.76
66703;BME280;60933;46.398;-63.798;2023-03-01T02:23:24;101981.13;;;-9.23;65.33
66703;BME280;60933;46.398;-63.798;2023-03-01T02:26:17;101981.25;;;-9.22;64.92
66703;BME280;60933;46.398;-63.798;2023-03-01T02:28:46;101993.88;;;-9.20;64.83
66703;BME280;60933;46.398;-63.798;2023-03-01T02:31:17;101992.25;;;-9.19;65.37
66703;BME280;60933;46.398;-63.798;2023-03-01T02:34:04;101994.75;;;-9.19;65.83
66703;BME280;60933;46.398;-63.798;2023-03-01T02:36:39;101981.38;;;-9.20;65.64
66703;BME280;60933;46.398;-63.798;2023-03-01T02:39:08;101994.75;;;-9.19;65.75
66703;BME280;60933;46.398;-63.798;2023-03-01T02:41:43;101988.88;;;-9.20;65.72
66703;BME280;60933;46.398;-63.798;2023-03-01T02:44:10;101983.97;;;-9.18;65.93
66703;BME280;60933;46.398;-63.798;2023-03-01T02:46:46;101989.84;;;-9.18;66.11
66703;BME280;60933;46.398;-63.798;2023-03-01T02:49:22;101986.59;;;-9.17;65.11
66703;BME280;60933;46.398;-63.798;2023-03-01T02:57:11;101987.69;;;-9.13;64.98
66703;BME280;60933;46.398;-63.798;2023-03-01T02:59:39;101987.59;;;-9.15;64.39
66703;BME280;60933;46.398;-63.798;2023-03-01T03:02:07;101983.59;;;-9.13;64.31
66703;BME280;60933;46.398;-63.798;2023-03-01T03:04:33;101988.78;;;-9.10;64.78
66703;BME280;60933;46.398;-63.798;2023-03-01T03:06:59;101990.53;;;-9.09;64.62
66703;BME280;60933;46.398;-63.798;2023-03-01T03:09:25;101982.19;;;-9.09;64.86
66703;BME280;60933;46.398;-63.798;2023-03-01T03:11:51;101977.78;;;-9.12;64.38
66703;BME280;60933;46.398;-63.798;2023-03-01T03:14:18;101962.78;;;-9.12;64.55
66703;BME280;60933;46.398;-63.798;2023-03-01T03:16:47;101960.94;;;-9.14;64.81
66703;BME280;60933;46.398;-63.798;2023-03-01T03:19:14;101965.81;;;-9.16;64.89
66703;BME280;60933;46.398;-63.798;2023-03-01T03:21:40;101958.97;;;-9.18;64.86
66703;BME280;60933;46.398;-63.798;2023-03-01T03:24:06;101961.38;;;-9.20;65.11
66703;BME280;60933;46.398;-63.798;2023-03-01T03:26:32;101969.72;;;-9.19;65.20
66703;BME280;60933;46.398;-63.798;2023-03-01T03:28:58;101969.47;;;-9.23;64.44
66703;BME280;60933;46.398;-63.798;2023-03-01T03:31:24;101970.38;;;-9.22;64.14
66703;BME280;60933;46.398;-63.798;2023-03-01T03:33:50;101961.66;;;-9.27;64.95
66703;BME280;60933;46.398;-63.798;2023-03-01T03:36:18;101969.16;;;-9.27;64.98
66703;BME280;60933;46.398;-63.798;2023-03-01T03:38:44;101971.97;;;-9.23;64.42
66703;BME280;60933;46.398;-63.798;2023-03-01T03:41:11;101966.13;;;-9.23;64.27
66703;BME280;60933;46.398;-63.798;2023-03-01T03:43:39;101972.88;;;-9.22;64.88
66703;BME280;60933;46.398;-63.798;2023-03-01T03:46:06;101987.13;;;-9.21;64.04
66703;BME280;60933;46.398;-63.798;2023-03-01T03:48:41;101982.78;;;-9.24;64.59
66703;BME280;60933;46.398;-63.798;2023-03-01T03:51:10;101979.50;;;-9.23;64.09
66703;BME280;60933;46.398;-63.798;2023-03-01T03:53:36;101987.78;;;-9.24;64.96
66703;BME280;60933;46.398;-63.798;2023-03-01T03:56:02;101985.13;;;-9.25;64.40
66703;BME280;60933;46.398;-63.798;2023-03-01T03:58:29;101988.38;;;-9.26;65.24
66703;BME280;60933;46.398;-63.798;2023-03-01T04:00:57;101984.03;;;-9.29;64.86
66703;BME280;60933;46.398;-63.798;2023-03-01T04:03:25;101978.94;;;-9.30;65.03
66703;BME280;60933;46.398;-63.798;2023-03-01T04:05:51;101975.44;;;-9.32;64.67
66703;BME280;60933;46.398;-63.798;2023-03-01T04:08:20;101977.94;;;-9.32;65.24
66703;BME280;60933;46.398;-63.798;2023-03-01T04:10:49;101977.28;;;-9.30;64.35
66703;BME280;60933;46.398;-63.798;2023-03-01T04:13:18;101979.78;;;-9.30;65.06
66703;BME280;60933;46.398;-63.798;2023-03-01T04:15:48;101980.44;;;-9.32;65.10
66703;BME280;60933;46.398;-63.798;2023-03-01T04:18:15;101977.81;;;-9.34;65.15
66703;BME280;60933;46.398;-63.798;2023-03-01T04:20:42;101976.19;;;-9.33;65.17
66703;BME280;60933;46.398;-63.798;2023-03-01T04:23:13;101972.72;;;-9.35;65.48
66703;BME280;60933;46.398;-63.798;2023-03-01T04:25:48;101978.56;;;-9.35;65.52
66703;BME280;60933;46.398;-63.798;2023-03-01T04:28:23;101979.22;;;-9.38;65.78
66703;BME280;60933;46.398;-63.798;2023-03-01T04:30:51;101986.94;;;-9.34;65.43
66703;BME280;60933;46.398;-63.798;2023-03-01T04:33:17;101993.69;;;-9.33;64.27
66703;BME280;60933;46.398;-63.798;2023-03-01T04:35:44;101998.69;;;-9.33;64.83
66703;BME280;60933;46.398;-63.798;2023-03-01T04:38:10;102002.84;;;-9.34;64.38
66703;BME280;60933;46.398;-63.798;2023-03-01T04:40:36;102010.34;;;-9.34;64.79
66703;BME280;60933;46.398;-63.798;2023-03-01T04:43:03;102011.94;;;-9.34;65.42
66703;BME280;60933;46.398;-63.798;2023-03-01T04:45:31;102007.72;;;-9.35;63.82
66703;BME280;60933;46.398;-63.798;2023-03-01T04:47:57;102004.97;;;-9.39;64.30
66703;BME280;60933;46.398;-63.798;2023-03-01T04:50:24;102013.59;;;-9.35;63.38
66703;BME280;60933;46.398;-63.798;2023-03-01T04:52:51;102016.72;;;-9.38;63.23
66703;BME280;60933;46.398;-63.798;2023-03-01T04:55:18;102007.47;;;-9.39;63.70
66703;BME280;60933;46.398;-63.798;2023-03-01T04:57:44;102005.72;;;-9.40;63.45
66703;BME280;60933;46.398;-63.798;2023-03-01T05:00:10;102005.63;;;-9.41;63.95
66703;BME280;60933;46.398;-63.798;2023-03-01T05:02:53;102007.13;;;-9.43;63.74
66703;BME280;60933;46.398;-63.798;2023-03-01T05:05:28;102011.25;;;-9.44;63.47
66703;BME280;60933;46.398;-63.798;2023-03-01T05:08:00;102010.25;;;-9.46;63.32
66703;BME280;60933;46.398;-63.798;2023-03-01T05:10:28;102004.25;;;-9.48;63.70
66703;BME280;60933;46.398;-63.798;2023-03-01T05:12:58;102001.56;;;-9.51;63.99
66703;BME280;60933;46.398;-63.798;2023-03-01T05:15:26;101996.56;;;-9.51;65.02
66703;BME280;60933;46.398;-63.798;2023-03-01T05:17:54;101999.81;;;-9.52;65.93
66703;BME280;60933;46.398;-63.798;2023-03-01T05:20:21;101995.31;;;-9.56;65.69
66703;BME280;60933;46.398;-63.798;2023-03-01T05:22:51;102000.19;;;-9.58;65.47
66703;BME280;60933;46.398;-63.798;2023-03-01T05:25:18;102004.78;;;-9.52;66.20
66703;BME280;60933;46.398;-63.798;2023-03-01T05:27:43;101993.56;;;-9.57;66.27
66703;BME280;60933;46.398;-63.798;2023-03-01T05:30:10;102003.03;;;-9.53;66.99
66703;BME280;60933;46.398;-63.798;2023-03-01T05:32:46;102012.16;;;-9.54;67.64
66703;BME280;60933;46.398;-63.798;2023-03-01T05:35:14;102017.16;;;-9.54;67.14
66703;BME280;60933;46.398;-63.798;2023-03-01T05:37:43;102014.66;;;-9.54;66.40
66703;BME280;60933;46.398;-63.798;2023-03-01T05:40:11;102015.56;;;-9.53;67.00
66703;BME280;60933;46.398;-63.798;2023-03-01T05:42:42;102017.94;;;-9.55;67.47
66703;BME280;60933;46.398;-63.798;2023-03-01T05:45:09;102016.31;;;-9.54;67.99
66703;BME280;60933;46.398;-63.798;2023-03-01T05:47:35;102015.56;;;-9.53;67.88
66703;BME280;60933;46.398;-63.798;2023-03-01T05:50:02;102015.56;;;-9.53;67.55
66703;BME280;60933;46.398;-63.798;2023-03-01T05:52:27;102010.66;;;-9.51;67.83
66703;BME280;60933;46.398;-63.798;2023-03-01T05:54:53;102005.66;;;-9.51;67.87
66703;BME280;60933;46.398;-63.798;2023-03-01T05:57:19;102001.56;;;-9.51;67.98
66703;BME280;60933;46.398;-63.798;2023-03-01T05:59:45;101994.81;;;-9.52;68.77
66703;BME280;60933;46.398;-63.798;2023-03-01T06:02:11;101992.41;;;-9.50;68.45
66703;BME280;60933;46.398;-63.798;2023-03-01T06:04:37;101989.91;;;-9.50;68.36
66703;BME280;60933;46.398;-63.798;2023-03-01T06:07:03;101984.16;;;-9.49;69.11
66703;BME280;60933;46.398;-63.798;2023-03-01T06:09:29;101976.31;;;-9.54;69.18
66703;BME280;60933;46.398;-63.798;2023-03-01T06:11:55;101981.75;;;-9.48;69.19
66703;BME280;60933;46.398;-63.798;2023-03-01T06:14:21;101979.25;;;-9.48;69.03
66703;BME280;60933;46.398;-63.798;2023-03-01T06:16:47;101979.25;;;-9.48;68.74
66703;BME280;60933;46.398;-63.798;2023-03-01T06:19:13;101981.75;;;-9.48;69.38
66703;BME280;60933;46.398;-63.798;2023-03-01T06:21:39;101968.50;;;-9.47;68.96
66703;BME280;60933;46.398;-63.798;2023-03-01T06:24:06;101963.75;;;-9.44;69.37
66703;BME280;60933;46.398;-63.798;2023-03-01T06:26:32;101967.00;;;-9.45;69.89
66703;BME280;60933;46.398;-63.798;2023-03-01T06:28:58;101967.88;;;-9.44;69.63
66703;BME280;60933;46.398;-63.798;2023-03-01T06:31:24;101973.13;;;-9.41;69.68
66703;BME280;60933;46.398;-63.798;2023-03-01T06:33:50;101981.63;;;-9.39;69.56
66703;BME280;60933;46.398;-63.798;2023-03-01T06:36:16;101969.97;;;-9.39;69.08
66703;BME280;60933;46.398;-63.798;2023-03-01T06:38:44;101975.06;;;-9.37;69.57
66703;BME280;60933;46.398;-63.798;2023-03-01T06:41:10;101976.72;;;-9.38;68.98
66703;BME280;60933;46.398;-63.798;2023-03-01T06:43:36;101973.56;;;-9.35;69.52
66703;BME280;60933;46.398;-63.798;2023-03-01T06:46:05;101971.06;;;-9.35;68.83
66703;BME280;60933;46.398;-63.798;2023-03-01T06:48:35;101972.72;;;-9.35;69.09
66703;BME280;60933;46.398;-63.798;2023-03-01T06:51:01;101965.97;;;-9.36;69.12
66703;BME280;60933;46.398;-63.798;2023-03-01T06:53:28;101962.72;;;-9.35;69.78
66703;BME280;60933;46.398;-63.798;2023-03-01T06:55:56;101956.19;;;-9.33;69.08
66703;BME280;60933;46.398;-63.798;2023-03-01T06:58:22;101962.72;;;-9.35;69.00
66703;BME280;60933;46.398;-63.798;2023-03-01T07:00:49;101979.69;;;-9.31;69.26
66703;BME280;60933;46.398;-63.798;2023-03-01T07:03:15;101983.94;;;-9.30;68.49
66703;BME280;60933;46.398;-63.798;2023-03-01T07:05:41;101988.19;;;-9.29;68.27
66703;BME280;60933;46.398;-63.798;2023-03-01T07:08:07;101984.03;;;-9.29;68.22
66703;BME280;60933;46.398;-63.798;2023-03-01T07:10:33;101984.94;;;-9.28;67.65
66703;BME280;60933;46.398;-63.798;2023-03-01T07:12:59;101984.16;;;-9.27;67.57
66703;BME280;60933;46.398;-63.798;2023-03-01T07:15:26;101984.16;;;-9.27;67.40
66703;BME280;60933;46.398;-63.798;2023-03-01T07:17:52;101979.16;;;-9.27;67.13
66703;BME280;60933;46.398;-63.798;2023-03-01T07:20:19;101988.38;;;-9.26;67.31
66703;BME280;60933;46.398;-63.798;2023-03-01T07:22:51;101982.63;;;-9.25;66.89
66703;BME280;60933;46.398;-63.798;2023-03-01T07:25:18;101983.53;;;-9.25;66.92
66703;BME280;60933;46.398;-63.798;2023-03-01T07:27:43;101978.63;;;-9.23;67.22
66703;BME280;60933;46.398;-63.798;2023-03-01T07:30:14;101981.25;;;-9.22;67.65
66703;BME280;60933;46.398;-63.798;2023-03-01T07:32:40;101978.75;;;-9.22;67.78
66703;BME280;60933;46.398;-63.798;2023-03-01T07:35:06;101978.88;;;-9.20;67.18
66703;BME280;60933;46.398;-63.798;2023-03-01T07:37:32;101972.97;;;-9.20;67.30
66703;BME280;60933;46.398;-63.798;2023-03-01T07:39:58;101975.59;;;-9.19;66.81
66703;BME280;60933;46.398;-63.798;2023-03-01T07:42:24;101962.88;;;-9.22;66.85
66703;BME280;60933;46.398;-63.798;2023-03-01T07:44:50;101969.72;;;-9.19;67.32
66703;BME280;60933;46.398;-63.798;2023-03-01T07:47:16;101960.59;;;-9.19;66.97
66703;BME280;60933;46.398;-63.798;2023-03-01T07:49:42;101958.88;;;-9.20;67.51
66703;BME280;60933;46.398;-63.798;2023-03-01T07:52:11;101958.88;;;-9.20;66.90
66703;BME280;60933;46.398;-63.798;2023-03-01T07:54:38;101946.34;;;-9.20;67.16
66703;BME280;60933;46.398;-63.798;2023-03-01T07:57:04;101952.31;;;-9.18;67.50
66703;BME280;60933;46.398;-63.798;2023-03-01T07:59:30;101941.56;;;-9.17;66.19
66703;BME280;60933;46.398;-63.798;2023-03-01T08:01:57;101931.66;;;-9.27;66.65
66703;BME280;60933;46.398;-63.798;2023-03-01T08:04:23;101949.97;;;-9.16;68.16
66703;BME280;60933;46.398;-63.798;2023-03-01T08:06:53;101955.06;;;-9.15;69.19
66703;BME280;60933;46.398;-63.798;2023-03-01T08:09:20;101954.06;;;-9.17;68.98
66703;BME280;60933;46.398;-63.798;2023-03-01T08:11:46;101959.31;;;-9.14;67.86
66703;BME280;60933;46.398;-63.798;2023-03-01T08:14:12;101961.06;;;-9.13;67.53
66703;BME280;60933;46.398;-63.798;2023-03-01T08:16:38;101950.16;;;-9.13;67.19
66703;BME280;60933;46.398;-63.798;2023-03-01T08:19:08;101958.78;;;-9.10;67.71
66703;BME280;60933;46.398;-63.798;2023-03-01T08:21:35;101958.03;;;-9.09;66.43
66703;BME280;60933;46.398;-63.798;2023-03-01T08:24:02;101951.41;;;-9.08;66.56
66703;BME280;60933;46.398;-63.798;2023-03-01T08:26:28;101948.75;;;-9.10;67.00
66703;BME280;60933;46.398;-63.798;2023-03-01T08:28:54;101953.03;;;-9.09;68.22
66703;BME280;60933;46.398;-63.798;2023-03-01T08:31:29;101952.25;;;-9.08;67.26
66703;BME280;60933;46.398;-63.798;2023-03-01T08:33:58;101945.91;;;-9.14;67.25
66703;BME280;60933;46.398;-63.798;2023-03-01T08:36:35;101956.50;;;-9.07;67.00
66703;BME280;60933;46.398;-63.798;2023-03-01T08:39:03;101951.50;;;-9.07;68.57
66703;BME280;60933;46.398;-63.798;2023-03-01T08:41:29;101936.25;;;-9.10;68.17
66703;BME280;60933;46.398;-63.798;2023-03-01T08:43:56;101934.84;;;-9.06;67.71
66703;BME280;60933;46.398;-63.798;2023-03-01T08:46:35;101934.84;;;-9.06;68.43
66703;BME280;60933;46.398;-63.798;2023-03-01T08:49:06;101933.25;;;-9.05;67.85
66703;BME280;60933;46.398;-63.798;2023-03-01T08:51:33;101936.50;;;-9.07;68.45
66703;BME280;60933;46.398;-63.798;2023-03-01T08:54:07;101930.59;;;-9.07;67.64
66703;BME280;60933;46.398;-63.798;2023-03-01T08:56:36;101933.88;;;-9.08;67.78
66703;BME280;60933;46.398;-63.798;2023-03-01T08:59:02;101941.41;;;-9.08;68.60
66703;BME280;60933;46.398;-63.798;2023-03-01T09:01:28;101931.25;;;-9.10;67.45
66703;BME280;60933;46.398;-63.798;2023-03-01T09:03:54;101938.00;;;-9.09;67.36
66703;BME280;60933;46.398;-63.798;2023-03-01T09:06:20;101936.25;;;-9.10;67.67
66703;BME280;60933;46.398;-63.798;2023-03-01T09:08:50;101939.50;;;-9.11;68.12
66703;BME280;60933;46.398;-63.798;2023-03-01T09:11:21;101938.66;;;-9.11;66.64
66703;BME280;60933;46.398;-63.798;2023-03-01T09:13:48;101937.75;;;-9.12;67.98
66703;BME280;60933;46.398;-63.798;2023-03-01T09:16:15;101930.06;;;-9.15;68.23
66703;BME280;60933;46.398;-63.798;2023-03-01T09:18:43;101934.41;;;-9.12;68.51
66703;BME280;60933;46.398;-63.798;2023-03-01T09:21:13;101940.25;;;-9.12;67.45
66703;BME280;60933;46.398;-63.798;2023-03-01T09:23:41;101935.16;;;-9.13;67.47
66703;BME280;60933;46.398;-63.798;2023-03-01T09:26:13;101938.75;;;-9.10;67.70
66703;BME280;60933;46.398;-63.798;2023-03-01T09:28:42;101946.16;;;-9.11;67.25
66703;BME280;60933;46.398;-63.798;2023-03-01T09:31:08;101944.50;;;-9.11;67.53
66703;BME280;60933;46.398;-63.798;2023-03-01T09:33:34;101949.53;;;-9.11;67.80
66703;BME280;60933;46.398;-63.798;2023-03-01T09:36:04;101952.78;;;-9.12;67.79
66703;BME280;60933;46.398;-63.798;2023-03-01T09:38:30;101945.28;;;-9.12;67.19
66703;BME280;60933;46.398;-63.798;2023-03-01T09:40:56;101937.75;;;-9.12;67.51
66703;BME280;60933;46.398;-63.798;2023-03-01T09:46:06;101941.66;;;-9.15;67.20
66703;BME280;60933;46.398;-63.798;2023-03-01T09:48:46;101932.09;;;-9.21;67.59
66703;BME280;60933;46.398;-63.798;2023-03-01T09:51:31;101940.56;;;-9.19;67.61
66703;BME280;60933;46.398;-63.798;2023-03-01T09:53:58;101942.22;;;-9.19;67.06
66703;BME280;60933;46.398;-63.798;2023-03-01T09:59:24;101945.38;;;-9.22;67.67
66703;BME280;60933;46.398;-63.798;2023-03-01T10:02:11;101932.63;;;-9.25;67.52
66703;BME280;60933;46.398;-63.798;2023-03-01T10:07:27;101918.91;;;-9.30;68.31
66703;BME280;60933;46.398;-63.798;2023-03-01T10:09:58;101912.91;;;-9.32;67.87
66703;BME280;60933;46.398;-63.798;2023-03-01T10:12:35;101912.69;;;-9.35;66.07
66703;BME280;60933;46.398;-63.798;2023-03-01T10:15:09;101914.19;;;-9.38;66.52
66703;BME280;60933;46.398;-63.798;2023-03-01T10:20:56;101925.25;;;-9.46;66.98
66703;BME280;60933;46.398;-63.798;2023-03-01T10:23:24;101931.53;;;-9.51;66.66
66703;BME280;60933;46.398;-63.798;2023-03-01T10:31:03;101943.44;;;-9.59;65.49
66703;BME280;60933;46.398;-63.798;2023-03-01T10:33:32;101939.94;;;-9.61;66.41
66703;BME280;60933;46.398;-63.798;2023-03-01T10:36:01;101934.72;;;-9.64;66.92
66703;BME280;60933;46.398;-63.798;2023-03-01T10:38:30;101940.47;;;-9.65;66.94
66703;BME280;60933;46.398;-63.798;2023-03-01T10:41:00;101934.63;;;-9.65;66.29
66703;BME280;60933;46.398;-63.798;2023-03-01T10:43:54;101937.13;;;-9.65;67.10
66703;BME280;60933;46.398;-63.798;2023-03-01T10:46:32;101930.47;;;-9.65;66.59
66703;BME280;60933;46.398;-63.798;2023-03-01T10:49:20;101931.34;;;-9.64;66.87
66703;BME280;60933;46.398;-63.798;2023-03-01T10:51:51;101932.22;;;-9.64;67.19
66703;BME280;60933;46.398;-63.798;2023-03-01T10:54:32;101941.59;;;-9.61;67.41
66703;BME280;60933;46.398;-63.798;2023-03-01T10:57:00;101947.44;;;-9.61;67.41
66703;BME280;60933;46.398;-63.798;2023-03-01T10:59:32;101950.19;;;-9.58;67.06
66703;BME280;60933;46.398;-63.798;2023-03-01T11:02:28;101953.56;;;-9.57;67.18
66703;BME280;60933;46.398;-63.798;2023-03-01T11:05:24;101958.06;;;-9.53;67.45
66703;BME280;60933;46.398;-63.798;2023-03-01T11:08:01;101970.00;;;-9.49;66.99
66703;BME280;60933;46.398;-63.798;2023-03-01T11:10:34;101959.41;;;-9.46;66.08
66703;BME280;60933;46.398;-63.798;2023-03-01T11:13:08;101975.72;;;-9.40;65.13
66703;BME280;60933;46.398;-63.798;2023-03-01T11:15:35;101971.81;;;-9.36;66.09
66703;BME280;60933;46.398;-63.798;2023-03-01T11:18:02;101966.06;;;-9.35;66.76
66703;BME280;60933;46.398;-63.798;2023-03-01T11:20:36;101964.66;;;-9.31;65.12
66703;BME280;60933;46.398;-63.798;2023-03-01T11:23:09;101959.25;;;-9.26;65.77
66703;BME280;60933;46.398;-63.798;2023-03-01T11:25:39;101969.72;;;-9.19;65.54
66703;BME280;60933;46.398;-63.798;2023-03-01T11:28:07;101971.69;;;-9.15;65.81
66703;BME280;60933;46.398;-63.798;2023-03-01T11:33:37;101971.63;;;-9.05;67.14
66703;BME280;60933;46.398;-63.798;2023-03-01T11:36:16;101980.47;;;-8.98;65.04
66703;BME280;60933;46.398;-63.798;2023-03-01T11:38:44;101982.34;;;-8.96;64.87
66703;BME280;60933;46.398;-63.798;2023-03-01T11:41:16;101983.66;;;-8.89;63.70
66703;BME280;60933;46.398;-63.798;2023-03-01T11:44:14;101985.63;;;-8.85;64.95
66703;BME280;60933;46.398;-63.798;2023-03-01T11:52:38;101994.28;;;-8.69;64.31
66703;BME280;60933;46.398;-63.798;2023-03-01T11:58:44;101990.28;;;-8.44;65.10
66703;BME280;60933;46.398;-63.798;2023-03-01T12:29:02;102001.16;;;-6.97;62.07
66703;BME280;60933;46.398;-63.798;2023-03-01T12:34:24;102006.56;;;-6.66;60.64
66703;BME280;60933;46.398;-63.798;2023-03-01T12:37:19;102010.88;;;-6.52;60.46
66703;BME280;60933;46.398;-63.798;2023-03-01T12:43:17;102007.41;;;-6.27;59.70
66703;BME280;60933;46.398;-63.798;2023-03-01T12:45:50;102007.34;;;-6.15;59.09
66703;BME280;60933;46.398;-63.798;2023-03-01T12:48:51;102014.09;;;-6.00;58.73
66703;BME280;60933;46.398;-63.798;2023-03-01T12:51:24;102014.88;;;-5.88;58.78
66703;BME280;60933;46.398;-63.798;2023-03-01T12:53:54;102020.34;;;-5.80;58.71
66703;BME280;60933;46.398;-63.798;2023-03-01T12:56:24;102025.50;;;-5.65;57.61
66703;BME280;60933;46.398;-63.798;2023-03-01T13:15:35;102020.19;;;-4.71;54.92
66703;BME280;60933;46.398;-63.798;2023-03-01T13:21:00;102028.44;;;-4.44;54.84
66703;BME280;60933;46.398;-63.798;2023-03-01T13:23:30;102025.84;;;-4.31;54.35
66703;BME280;60933;46.398;-63.798;2023-03-01T13:26:15;102035.75;;;-4.19;53.74
66703;BME280;60933;46.398;-63.798;2023-03-01T13:34:03;102038.59;;;-3.83;53.47
66703;BME280;60933;46.398;-63.798;2023-03-01T13:39:28;102035.81;;;-3.56;52.45
66703;BME280;60933;46.398;-63.798;2023-03-01T13:41:58;102038.94;;;-3.45;51.56
66703;BME280;60933;46.398;-63.798;2023-03-01T13:44:37;102038.00;;;-3.30;52.15
66703;BME280;60933;46.398;-63.798;2023-03-01T13:47:14;102027.81;;;-3.15;50.39
66703;BME280;60933;46.398;-63.798;2023-03-01T13:49:49;102024.66;;;-2.95;51.10
66703;BME280;60933;46.398;-63.798;2023-03-01T13:58:43;102028.16;;;-2.42;48.44
66703;BME280;60933;46.398;-63.798;2023-03-01T14:01:28;102026.31;;;-2.28;48.39
66703;BME280;60933;46.398;-63.798;2023-03-01T14:03:55;102023.50;;;-2.16;47.88
66703;BME280;60933;46.398;-63.798;2023-03-01T14:06:24;102021.50;;;-2.05;47.50
66703;BME280;60933;46.398;-63.798;2023-03-01T14:09:00;102017.94;;;-1.91;49.18
66703;BME280;60933;46.398;-63.798;2023-03-01T14:14:08;102014.72;;;-1.68;48.52
66703;BME280;60933;46.398;-63.798;2023-03-01T14:19:24;101998.00;;;-1.47;46.78
66703;BME280;60933;46.398;-63.798;2023-03-01T14:22:25;101994.41;;;-1.32;46.92
66703;BME280;60933;46.398;-63.798;2023-03-01T14:25:00;101999.69;;;-1.28;45.71
66703;BME280;60933;46.398;-63.798;2023-03-01T14:27:35;101994.28;;;-1.16;46.19
66703;BME280;60933;46.398;-63.798;2023-03-01T14:30:04;101991.72;;;-0.96;45.93
66703;BME280;60933;46.398;-63.798;2023-03-01T14:32:35;101988.91;;;-0.83;46.20
66703;BME280;60933;46.398;-63.798;2023-03-01T14:35:01;101976.81;;;-0.69;46.67
66703;BME280;60933;46.398;-63.798;2023-03-01T14:37:31;101982.75;;;-0.47;46.27